sensor_id;sensor_type;location;lat;lon;timestamp;temperature;humidity
33460;DHT22;19795;53.160;6.612;2023-07-20T03:42:53;11.50;99.90
33460;DHT22;19795;53.160;6.612;2023-07-20T03:45:19;11.50;99.90
33460;DHT22;19795;53.160;6.612;2023-07-20T03:47:45;11.50;99.90
33460;DHT22;19795;53.160;6.612;2023-07-20T03:50:10;11.50;99.90
33460;DHT22;19795;53.160;6.612;2023-07-20T03:52:36;11.50;99.90
33460;DHT22;19795;53.160;6.612;2023-07-20T03:55:02;11.50;99.90
33460;DHT22;19795;53.160;6.612;2023-07-20T03:57:27;11.50;99.90
33460;DHT22;19795;53.160;6.612;2023-07-20T03:59:53;11.40;99.90
33460;DHT22;19795;53.160;6.612;2023-07-20T04:02:19;11.50;99.90
33460;DHT22;19795;53.160;6.612;2023-07-20T04:04:45;11.50;99.90
33460;DHT22;19795;53.160;6.612;2023-07-20T04:07:11;11.50;99.90
33460;DHT22;19795;53.160;6.612;2023-07-20T04:09:36;11.50;99.90
33460;DHT22;19795;53.160;6.612;2023-07-20T04:12:02;11.50;99.90
33460;DHT22;19795;53.160;6.612;2023-07-20T04:14:28;11.60;99.90
33460;DHT22;19795;53.160;6.612;2023-07-20T04:16:53;11.60;99.90
33460;DHT22;19795;53.160;6.612;2023-07-20T04:19:19;11.60;99.90
33460;DHT22;19795;53.160;6.612;2023-07-20T04:21:44;11.70;99.90
33460;DHT22;19795;53.160;6.612;2023-07-20T04:24:10;11.80;99.90
33460;DHT22;19795;53.160;6.612;2023-07-20T04:26:36;11.90;99.90
33460;DHT22;19795;53.160;6.612;2023-07-20T04:29:02;11.90;99.90
33460;DHT22;19795;53.160;6.612;2023-07-20T04:31:28;11.90;99.90
33460;DHT22;19795;53.160;6.612;2023-07-20T04:33:55;11.90;99.90
33460;DHT22;19795;53.160;6.612;2023-07-20T04:36:21;11.80;99.90
33460;DHT22;19795;53.160;6.612;2023-07-20T04:38:47;11.80;99.90
33460;DHT22;19795;53.160;6.612;2023-07-20T04:41:12;11.80;99.90
33460;DHT22;19795;53.160;6.612;2023-07-20T04:43:42;11.90;99.90
33460;DHT22;19795;53.160;6.612;2023-07-20T04:46:09;12.10;99.90
33460;DHT22;19795;53.160;6.612;2023-07-20T04:48:34;12.20;99.90
33460;DHT22;19795;53.160;6.612;2023-07-20T04:51:00;12.30;99.90
33460;DHT22;19795;53.160;6.612;2023-07-20T04:53:26;12.40;99.90
33460;DHT22;19795;53.160;6.612;2023-07-20T04:55:51;12.40;99.90
33460;DHT22;19795;53.160;6.612;2023-07-20T04:58:18;12.40;99.90
33460;DHT22;19795;53.160;6.612;2023-07-20T05:00:44;12.60;99.90
33460;DHT22;19795;53.160;6.612;2023-07-20T05:03:10;12.70;99.90
33460;DHT22;19795;53.160;6.612;2023-07-20T05:05:35;12.70;99.90
33460;DHT22;19795;53.160;6.612;2023-07-20T05:08:01;12.70;99.90
33460;DHT22;19795;53.160;6.612;2023-07-20T05:10:26;12.90;99.90
33460;DHT22;19795;53.160;6.612;2023-07-20T05:12:52;13.10;99.90
33460;DHT22;19795;53.160;6.612;2023-07-20T05:15:18;13.30;99.90
33460;DHT22;19795;53.160;6.612;2023-07-20T05:17:44;14.20;99.90
33460;DHT22;19795;53.160;6.612;2023-07-20T05:20:10;14.80;99.90
33460;DHT22;19795;53.160;6.612;2023-07-20T05:22:36;15.20;99.90
33460;DHT22;19795;53.160;6.612;2023-07-20T05:25:09;15.00;99.90
33460;DHT22;19795;53.160;6.612;2023-07-20T05:27:38;15.30;99.90
33460;DHT22;19795;53.160;6.612;2023-07-20T05:30:05;14.90;99.90
33460;DHT22;19795;53.160;6.612;2023-07-20T05:32:32;14.90;99.90
33460;DHT22;19795;53.160;6.612;2023-07-20T05:34:58;15.00;99.90
33460;DHT22;19795;53.160;6.612;2023-07-20T05:37:24;14.80;99.90
33460;DHT22;19795;53.160;6.612;2023-07-20T05:39:49;14.60;99.90
33460;DHT22;19795;53.160;6.612;2023-07-20T05:42:15;14.60;99.90
33460;DHT22;19795;53.160;6.612;2023-07-20T05:44:41;14.60;99.90
33460;DHT22;19795;53.160;6.612;2023-07-20T05:47:07;15.40;99.90
33460;DHT22;19795;53.160;6.612;2023-07-20T05:49:34;16.10;99.90
33460;DHT22;19795;53.160;6.612;2023-07-20T05:52:00;17.10;99.90
33460;DHT22;19795;53.160;6.612;2023-07-20T05:54:26;18.10;99.90
33460;DHT22;19795;53.160;6.612;2023-07-20T05:56:52;18.60;99.90
33460;DHT22;19795;53.160;6.612;2023-07-20T05:59:18;19.20;99.90
33460;DHT22;19795;53.160;6.612;2023-07-20T06:01:45;18.90;99.90
33460;DHT22;19795;53.160;6.612;2023-07-20T06:04:12;19.40;99.90
33460;DHT22;19795;53.160;6.612;2023-07-20T06:06:38;19.80;99.90
33460;DHT22;19795;53.160;6.612;2023-07-20T06:09:04;19.80;99.90
33460;DHT22;19795;53.160;6.612;2023-07-20T06:11:32;20.00;99.90
33460;DHT22;19795;53.160;6.612;2023-07-20T06:13:58;20.50;99.90
33460;DHT22;19795;53.160;6.612;2023-07-20T06:16:24;20.80;99.90
33460;DHT22;19795;53.160;6.612;2023-07-20T06:18:50;20.70;99.90
33460;DHT22;19795;53.160;6.612;2023-07-20T06:21:15;20.80;99.90
33460;DHT22;19795;53.160;6.612;2023-07-20T06:23:41;20.00;99.90
33460;DHT22;19795;53.160;6.612;2023-07-20T06:26:07;20.40;99.90
33460;DHT22;19795;53.160;6.612;2023-07-20T06:28:33;21.30;99.90
33460;DHT22;19795;53.160;6.612;2023-07-20T06:31:00;21.40;99.90
33460;DHT22;19795;53.160;6.612;2023-07-20T06:33:26;20.80;99.90
33460;DHT22;19795;53.160;6.612;2023-07-20T06:35:51;20.50;99.90
33460;DHT22;19795;53.160;6.612;2023-07-20T06:38:18;21.20;99.90
33460;DHT22;19795;53.160;6.612;2023-07-20T06:40:46;21.60;99.90
33460;DHT22;19795;53.160;6.612;2023-07-20T06:43:12;21.40;99.90
33460;DHT22;19795;53.160;6.612;2023-07-20T06:45:37;22.20;99.90
33460;DHT22;19795;53.160;6.612;2023-07-20T06:48:03;21.70;99.90
33460;DHT22;19795;53.160;6.612;2023-07-20T06:50:29;21.20;99.90
33460;DHT22;19795;53.160;6.612;2023-07-20T06:52:55;21.30;99.90
33460;DHT22;19795;53.160;6.612;2023-07-20T06:55:20;22.00;99.90
33460;DHT22;19795;53.160;6.612;2023-07-20T06:57:46;21.50;99.90
33460;DHT22;19795;53.160;6.612;2023-07-20T07:00:15;21.30;99.90
33460;DHT22;19795;53.160;6.612;2023-07-20T07:02:41;21.10;99.90
33460;DHT22;19795;53.160;6.612;2023-07-20T07:05:06;21.80;99.90
33460;DHT22;19795;53.160;6.612;2023-07-20T07:07:32;21.50;99.90
33460;DHT22;19795;53.160;6.612;2023-07-20T07:09:59;21.90;99.90
33460;DHT22;19795;53.160;6.612;2023-07-20T07:12:25;22.30;88.60
33460;DHT22;19795;53.160;6.612;2023-07-20T07:14:51;22.10;72.20
33460;DHT22;19795;53.160;6.612;2023-07-20T07:17:18;22.20;91.70
33460;DHT22;19795;53.160;6.612;2023-07-20T07:19:43;22.80;76.50
33460;DHT22;19795;53.160;6.612;2023-07-20T07:22:10;21.10;92.30
33460;DHT22;19795;53.160;6.612;2023-07-20T07:24:35;19.60;99.90
33460;DHT22;19795;53.160;6.612;2023-07-20T07:27:01;18.60;99.90
33460;DHT22;19795;53.160;6.612;2023-07-20T07:29:27;18.00;99.90
33460;DHT22;19795;53.160;6.612;2023-07-20T07:31:53;17.90;99.90
33460;DHT22;19795;53.160;6.612;2023-07-20T07:34:19;19.10;99.90
33460;DHT22;19795;53.160;6.612;2023-07-20T07:36:44;20.50;99.90
33460;DHT22;19795;53.160;6.612;2023-07-20T07:39:11;21.10;72.80
33460;DHT22;19795;53.160;6.612;2023-07-20T07:41:36;21.80;44.90
33460;DHT22;19795;53.160;6.612;2023-07-20T07:44:02;21.80;66.80
33460;DHT22;19795;53.160;6.612;2023-07-20T07:46:28;22.10;74.40
33460;DHT22;19795;53.160;6.612;2023-07-20T07:48:53;22.20;31.50
33460;DHT22;19795;53.160;6.612;2023-07-20T07:51:19;22.60;32.50
33460;DHT22;19795;53.160;6.612;2023-07-20T07:53:46;23.70;1.00
33460;DHT22;19795;53.160;6.612;2023-07-20T07:56:15;22.80;12.30
33460;DHT22;19795;53.160;6.612;2023-07-20T07:58:44;21.20;58.10
33460;DHT22;19795;53.160;6.612;2023-07-20T08:01:10;19.50;92.20
33460;DHT22;19795;53.160;6.612;2023-07-20T08:03:36;19.30;71.60
33460;DHT22;19795;53.160;6.612;2023-07-20T08:06:02;20.70;17.10
33460;DHT22;19795;53.160;6.612;2023-07-20T08:08:31;22.00;1.00
33460;DHT22;19795;53.160;6.612;2023-07-20T08:10:57;22.80;1.00
33460;DHT22;19795;53.160;6.612;2023-07-20T08:13:23;22.50;99.90
33460;DHT22;19795;53.160;6.612;2023-07-20T08:15:50;22.50;99.90
33460;DHT22;19795;53.160;6.612;2023-07-20T08:18:19;22.50;99.90
33460;DHT22;19795;53.160;6.612;2023-07-20T08:20:45;22.60;1.00
33460;DHT22;19795;53.160;6.612;2023-07-20T08:23:11;23.10;99.90
33460;DHT22;19795;53.160;6.612;2023-07-20T08:25:37;23.00;99.90
33460;DHT22;19795;53.160;6.612;2023-07-20T08:28:05;23.20;99.90
33460;DHT22;19795;53.160;6.612;2023-07-20T08:30:43;20.80;1.00
33460;DHT22;19795;53.160;6.612;2023-07-20T08:33:10;19.20;8.90
33460;DHT22;19795;53.160;6.612;2023-07-20T08:35:38;18.50;49.10
33460;DHT22;19795;53.160;6.612;2023-07-20T08:38:04;18.90;39.70
33460;DHT22;19795;53.160;6.612;2023-07-20T08:40:31;20.70;1.00
33460;DHT22;19795;53.160;6.612;2023-07-20T08:42:58;21.70;1.00
33460;DHT22;19795;53.160;6.612;2023-07-20T08:45:29;22.70;99.90
33460;DHT22;19795;53.160;6.612;2023-07-20T08:48:01;23.90;99.90
33460;DHT22;19795;53.160;6.612;2023-07-20T08:50:32;23.30;1.00
33460;DHT22;19795;53.160;6.612;2023-07-20T08:52:58;21.90;1.00
33460;DHT22;19795;53.160;6.612;2023-07-20T08:55:26;20.70;1.00
33460;DHT22;19795;53.160;6.612;2023-07-20T08:57:54;20.90;99.90
33460;DHT22;19795;53.160;6.612;2023-07-20T09:00:21;21.80;99.90
33460;DHT22;19795;53.160;6.612;2023-07-20T09:02:52;22.50;60.20
33460;DHT22;19795;53.160;6.612;2023-07-20T09:05:19;22.20;83.80
33460;DHT22;19795;53.160;6.612;2023-07-20T09:07:45;22.50;99.90
33460;DHT22;19795;53.160;6.612;2023-07-20T09:10:11;21.20;1.00
33460;DHT22;19795;53.160;6.612;2023-07-20T09:12:38;20.80;1.00
33460;DHT22;19795;53.160;6.612;2023-07-20T09:15:05;21.30;99.90
33460;DHT22;19795;53.160;6.612;2023-07-20T09:17:31;22.00;99.90
33460;DHT22;19795;53.160;6.612;2023-07-20T09:19:57;21.50;1.00
33460;DHT22;19795;53.160;6.612;2023-07-20T09:22:30;21.50;99.90
33460;DHT22;19795;53.160;6.612;2023-07-20T09:24:57;20.60;1.00
33460;DHT22;19795;53.160;6.612;2023-07-20T09:27:35;20.00;99.90
33460;DHT22;19795;53.160;6.612;2023-07-20T09:30:02;21.40;1.00
33460;DHT22;19795;53.160;6.612;2023-07-20T09:32:28;22.90;99.90
33460;DHT22;19795;53.160;6.612;2023-07-20T09:34:54;24.30;99.90
33460;DHT22;19795;53.160;6.612;2023-07-20T09:37:23;23.60;99.90
33460;DHT22;19795;53.160;6.612;2023-07-20T09:39:52;22.20;99.90
33460;DHT22;19795;53.160;6.612;2023-07-20T09:42:18;21.20;99.90
33460;DHT22;19795;53.160;6.612;2023-07-20T09:44:44;20.60;1.00
33460;DHT22;19795;53.160;6.612;2023-07-20T09:47:10;21.70;1.00
33460;DHT22;19795;53.160;6.612;2023-07-20T09:49:42;22.70;99.90
33460;DHT22;19795;53.160;6.612;2023-07-20T09:52:08;23.50;99.90
33460;DHT22;19795;53.160;6.612;2023-07-20T09:54:38;23.50;1.00
33460;DHT22;19795;53.160;6.612;2023-07-20T09:57:06;22.30;99.90
33460;DHT22;19795;53.160;6.612;2023-07-20T09:59:33;21.50;99.90
33460;DHT22;19795;53.160;6.612;2023-07-20T10:02:06;21.00;99.90
33460;DHT22;19795;53.160;6.612;2023-07-20T10:04:34;22.20;99.90
33460;DHT22;19795;53.160;6.612;2023-07-20T10:07:03;24.20;99.90
33460;DHT22;19795;53.160;6.612;2023-07-20T10:09:31;23.10;99.90
33460;DHT22;19795;53.160;6.612;2023-07-20T10:11:59;22.90;1.00
33460;DHT22;19795;53.160;6.612;2023-07-20T10:14:26;23.10;95.00
33460;DHT22;19795;53.160;6.612;2023-07-20T10:17:01;23.40;99.90
33460;DHT22;19795;53.160;6.612;2023-07-20T10:19:34;23.60;1.00
33460;DHT22;19795;53.160;6.612;2023-07-20T10:22:13;23.70;1.00
33460;DHT22;19795;53.160;6.612;2023-07-20T10:24:39;23.50;1.00
33460;DHT22;19795;53.160;6.612;2023-07-20T10:27:07;23.10;99.90
33460;DHT22;19795;53.160;6.612;2023-07-20T10:29:32;22.10;99.90
33460;DHT22;19795;53.160;6.612;2023-07-20T10:31:59;21.40;1.00
33460;DHT22;19795;53.160;6.612;2023-07-20T10:34:25;21.30;99.90
33460;DHT22;19795;53.160;6.612;2023-07-20T10:36:51;21.20;99.90
33460;DHT22;19795;53.160;6.612;2023-07-20T10:39:25;22.40;1.00
33460;DHT22;19795;53.160;6.612;2023-07-20T10:42:03;24.10;99.90
33460;DHT22;19795;53.160;6.612;2023-07-20T10:44:31;25.20;99.90
33460;DHT22;19795;53.160;6.612;2023-07-20T10:47:01;25.30;1.00
33460;DHT22;19795;53.160;6.612;2023-07-20T10:49:28;25.80;99.90
33460;DHT22;19795;53.160;6.612;2023-07-20T10:52:04;25.50;1.00
33460;DHT22;19795;53.160;6.612;2023-07-20T10:57:28;22.80;99.90
33460;DHT22;19795;53.160;6.612;2023-07-20T11:00:11;23.80;99.90
33460;DHT22;19795;53.160;6.612;2023-07-20T11:02:48;24.80;1.00
33460;DHT22;19795;53.160;6.612;2023-07-20T11:05:38;25.50;1.00
33460;DHT22;19795;53.160;6.612;2023-07-20T11:08:38;26.00;1.00
33460;DHT22;19795;53.160;6.612;2023-07-20T11:11:29;25.20;1.00
33460;DHT22;19795;53.160;6.612;2023-07-20T11:13:57;23.50;99.90
33460;DHT22;19795;53.160;6.612;2023-07-20T11:16:46;22.80;99.90
33460;DHT22;19795;53.160;6.612;2023-07-20T11:19:20;23.60;99.90
33460;DHT22;19795;53.160;6.612;2023-07-20T11:21:56;24.10;28.80
33460;DHT22;19795;53.160;6.612;2023-07-20T11:24:22;24.20;1.00
33460;DHT22;19795;53.160;6.612;2023-07-20T11:26:50;22.50;1.00
33460;DHT22;19795;53.160;6.612;2023-07-20T11:29:18;21.80;99.90
33460;DHT22;19795;53.160;6.612;2023-07-20T11:31:45;21.40;99.90
33460;DHT22;19795;53.160;6.612;2023-07-20T11:34:13;21.40;99.90
33460;DHT22;19795;53.160;6.612;2023-07-20T11:36:44;23.20;99.90
33460;DHT22;19795;53.160;6.612;2023-07-20T11:39:12;24.00;1.00
33460;DHT22;19795;53.160;6.612;2023-07-20T11:41:39;24.50;1.00
33460;DHT22;19795;53.160;6.612;2023-07-20T11:44:10;25.90;1.00
33460;DHT22;19795;53.160;6.612;2023-07-20T11:46:39;26.20;1.00
33460;DHT22;19795;53.160;6.612;2023-07-20T11:49:05;25.80;1.00
33460;DHT22;19795;53.160;6.612;2023-07-20T11:51:31;25.00;1.00
33460;DHT22;19795;53.160;6.612;2023-07-20T11:53:58;24.60;1.00
33460;DHT22;19795;53.160;6.612;2023-07-20T11:56:25;25.20;1.00
33460;DHT22;19795;53.160;6.612;2023-07-20T11:58:54;25.50;1.00
33460;DHT22;19795;53.160;6.612;2023-07-20T12:01:25;25.90;1.00
33460;DHT22;19795;53.160;6.612;2023-07-20T12:03:55;25.40;1.00
33460;DHT22;19795;53.160;6.612;2023-07-20T12:06:25;24.00;1.00
33460;DHT22;19795;53.160;6.612;2023-07-20T12:08:54;23.40;1.00
33460;DHT22;19795;53.160;6.612;2023-07-20T12:11:35;24.10;1.00
33460;DHT22;19795;53.160;6.612;2023-07-20T12:14:01;23.40;46.10
33460;DHT22;19795;53.160;6.612;2023-07-20T12:16:28;22.20;99.90
33460;DHT22;19795;53.160;6.612;2023-07-20T12:19:05;21.60;1.00
33460;DHT22;19795;53.160;6.612;2023-07-20T12:21:33;21.40;99.90
33460;DHT22;19795;53.160;6.612;2023-07-20T12:23:59;21.80;99.90
33460;DHT22;19795;53.160;6.612;2023-07-20T12:26:26;21.80;99.90
33460;DHT22;19795;53.160;6.612;2023-07-20T12:28:52;22.10;86.20
33460;DHT22;19795;53.160;6.612;2023-07-20T12:31:18;22.90;16.10
33460;DHT22;19795;53.160;6.612;2023-07-20T12:33:47;23.90;48.00
33460;DHT22;19795;53.160;6.612;2023-07-20T12:36:12;24.60;99.90
33460;DHT22;19795;53.160;6.612;2023-07-20T12:38:38;24.70;45.10
33460;DHT22;19795;53.160;6.612;2023-07-20T12:41:04;24.60;1.00
33460;DHT22;19795;53.160;6.612;2023-07-20T12:43:30;23.50;99.90
33460;DHT22;19795;53.160;6.612;2023-07-20T12:45:57;22.90;1.80
33460;DHT22;19795;53.160;6.612;2023-07-20T12:48:26;23.20;1.00
33460;DHT22;19795;53.160;6.612;2023-07-20T12:50:52;23.20;1.00
33460;DHT22;19795;53.160;6.612;2023-07-20T12:53:17;22.60;99.90
33460;DHT22;19795;53.160;6.612;2023-07-20T12:55:43;21.40;99.90
33460;DHT22;19795;53.160;6.612;2023-07-20T12:58:11;20.50;1.00
33460;DHT22;19795;53.160;6.612;2023-07-20T13:00:37;19.80;54.30
33460;DHT22;19795;53.160;6.612;2023-07-20T13:03:02;19.30;70.60
33460;DHT22;19795;53.160;6.612;2023-07-20T13:05:31;18.50;99.90
33460;DHT22;19795;53.160;6.612;2023-07-20T13:07:57;18.00;99.90
33460;DHT22;19795;53.160;6.612;2023-07-20T13:10:27;18.00;99.90
33460;DHT22;19795;53.160;6.612;2023-07-20T13:12:52;18.20;99.90
33460;DHT22;19795;53.160;6.612;2023-07-20T13:15:18;18.70;99.90
33460;DHT22;19795;53.160;6.612;2023-07-20T13:17:44;19.60;99.90
33460;DHT22;19795;53.160;6.612;2023-07-20T13:20:10;20.70;99.90
33460;DHT22;19795;53.160;6.612;2023-07-20T13:22:39;21.80;53.00
33460;DHT22;19795;53.160;6.612;2023-07-20T13:25:07;23.00;37.80
33460;DHT22;19795;53.160;6.612;2023-07-20T13:27:34;23.40;1.00
33460;DHT22;19795;53.160;6.612;2023-07-20T13:30:00;23.40;1.00
33460;DHT22;19795;53.160;6.612;2023-07-20T13:32:27;24.00;1.00
33460;DHT22;19795;53.160;6.612;2023-07-20T13:34:53;24.60;1.00
33460;DHT22;19795;53.160;6.612;2023-07-20T13:37:19;23.90;99.90
33460;DHT22;19795;53.160;6.612;2023-07-20T13:39:44;24.60;1.00
33460;DHT22;19795;53.160;6.612;2023-07-20T13:42:10;24.10;99.90
33460;DHT22;19795;53.160;6.612;2023-07-20T13:44:38;24.00;99.90
33460;DHT22;19795;53.160;6.612;2023-07-20T13:47:04;24.30;99.90
33460;DHT22;19795;53.160;6.612;2023-07-20T13:49:33;24.20;99.90
33460;DHT22;19795;53.160;6.612;2023-07-20T13:51:59;23.10;99.90
33460;DHT22;19795;53.160;6.612;2023-07-20T13:54:25;23.30;97.00
33460;DHT22;19795;53.160;6.612;2023-07-20T13:56:51;23.40;1.00
33460;DHT22;19795;53.160;6.612;2023-07-20T13:59:17;23.00;99.90
33460;DHT22;19795;53.160;6.612;2023-07-20T14:01:43;23.30;99.90
33460;DHT22;19795;53.160;6.612;2023-07-20T14:04:11;23.30;99.90
33460;DHT22;19795;53.160;6.612;2023-07-20T14:06:40;23.90;79.40
33460;DHT22;19795;53.160;6.612;2023-07-20T14:09:06;24.20;6.20
33460;DHT22;19795;53.160;6.612;2023-07-20T14:11:31;24.60;51.00
33460;DHT22;19795;53.160;6.612;2023-07-20T14:13:57;24.00;99.90
33460;DHT22;19795;53.160;6.612;2023-07-20T14:16:25;24.80;1.00
33460;DHT22;19795;53.160;6.612;2023-07-20T14:19:09;24.90;99.90
33460;DHT22;19795;53.160;6.612;2023-07-20T14:21:34;25.20;1.00
33460;DHT22;19795;53.160;6.612;2023-07-20T14:24:03;24.00;79.40
33460;DHT22;19795;53.160;6.612;2023-07-20T14:26:29;23.30;1.00
33460;DHT22;19795;53.160;6.612;2023-07-20T14:28:55;24.70;1.00
33460;DHT22;19795;53.160;6.612;2023-07-20T14:31:21;25.80;9.70
33460;DHT22;19795;53.160;6.612;2023-07-20T14:33:47;25.80;1.00
33460;DHT22;19795;53.160;6.612;2023-07-20T14:36:12;24.20;1.00
33460;DHT22;19795;53.160;6.612;2023-07-20T14:38:38;23.90;1.00
33460;DHT22;19795;53.160;6.612;2023-07-20T14:41:06;23.10;1.00
33460;DHT22;19795;53.160;6.612;2023-07-20T14:43:32;22.40;99.90
33460;DHT22;19795;53.160;6.612;2023-07-20T14:45:57;22.20;1.00
33460;DHT22;19795;53.160;6.612;2023-07-20T14:48:23;22.10;99.90
33460;DHT22;19795;53.160;6.612;2023-07-20T14:50:56;22.20;1.00
33460;DHT22;19795;53.160;6.612;2023-07-20T14:53:22;22.40;1.00
33460;DHT22;19795;53.160;6.612;2023-07-20T14:55:48;22.90;99.90
33460;DHT22;19795;53.160;6.612;2023-07-20T14:58:13;23.10;99.90
33460;DHT22;19795;53.160;6.612;2023-07-20T15:00:39;23.50;99.90
33460;DHT22;19795;53.160;6.612;2023-07-20T15:03:14;23.40;99.90
33460;DHT22;19795;53.160;6.612;2023-07-20T15:05:39;22.70;1.00
33460;DHT22;19795;53.160;6.612;2023-07-20T15:08:05;22.90;99.90
33460;DHT22;19795;53.160;6.612;2023-07-20T15:10:32;23.60;99.90
33460;DHT22;19795;53.160;6.612;2023-07-20T15:12:58;23.50;78.00
33460;DHT22;19795;53.160;6.612;2023-07-20T15:15:24;23.80;13.80
33460;DHT22;19795;53.160;6.612;2023-07-20T15:17:49;23.60;67.30
33460;DHT22;19795;53.160;6.612;2023-07-20T15:20:16;23.10;99.90
33460;DHT22;19795;53.160;6.612;2023-07-20T15:22:45;23.10;61.10
33460;DHT22;19795;53.160;6.612;2023-07-20T15:25:13;22.30;99.90
33460;DHT22;19795;53.160;6.612;2023-07-20T15:27:40;21.70;1.00
33460;DHT22;19795;53.160;6.612;2023-07-20T15:30:11;22.20;99.90
33460;DHT22;19795;53.160;6.612;2023-07-20T15:32:36;22.40;99.90
33460;DHT22;19795;53.160;6.612;2023-07-20T15:35:02;22.40;15.00
33460;DHT22;19795;53.160;6.612;2023-07-20T15:37:29;22.10;1.00
33460;DHT22;19795;53.160;6.612;2023-07-20T15:39:55;22.30;99.90
33460;DHT22;19795;53.160;6.612;2023-07-20T15:42:20;22.60;99.90
33460;DHT22;19795;53.160;6.612;2023-07-20T15:44:47;22.10;1.00
33460;DHT22;19795;53.160;6.612;2023-07-20T15:47:13;21.20;99.90
33460;DHT22;19795;53.160;6.612;2023-07-20T15:49:39;21.10;31.70
33460;DHT22;19795;53.160;6.612;2023-07-20T15:52:04;21.10;99.90
33460;DHT22;19795;53.160;6.612;2023-07-20T15:54:30;21.10;1.00
33460;DHT22;19795;53.160;6.612;2023-07-20T15:56:59;21.60;99.90
33460;DHT22;19795;53.160;6.612;2023-07-20T15:59:27;21.60;99.90
33460;DHT22;19795;53.160;6.612;2023-07-20T16:01:55;21.30;1.00
33460;DHT22;19795;53.160;6.612;2023-07-20T16:04:21;21.50;39.60
33460;DHT22;19795;53.160;6.612;2023-07-20T16:06:46;21.90;76.40
33460;DHT22;19795;53.160;6.612;2023-07-20T16:09:12;21.80;99.90
33460;DHT22;19795;53.160;6.612;2023-07-20T16:11:38;22.10;23.70
33460;DHT22;19795;53.160;6.612;2023-07-20T16:14:06;21.90;99.90
33460;DHT22;19795;53.160;6.612;2023-07-20T16:16:35;21.60;22.60
33460;DHT22;19795;53.160;6.612;2023-07-20T16:19:01;21.40;99.90
33460;DHT22;19795;53.160;6.612;2023-07-20T16:21:26;21.50;1.00
33460;DHT22;19795;53.160;6.612;2023-07-20T16:23:52;21.90;1.00
33460;DHT22;19795;53.160;6.612;2023-07-20T16:26:18;21.10;99.90
33460;DHT22;19795;53.160;6.612;2023-07-20T16:28:43;20.70;99.90
33460;DHT22;19795;53.160;6.612;2023-07-20T16:31:14;20.40;99.90
33460;DHT22;19795;53.160;6.612;2023-07-20T16:33:41;20.20;99.90
33460;DHT22;19795;53.160;6.612;2023-07-20T16:36:14;20.40;21.70
33460;DHT22;19795;53.160;6.612;2023-07-20T16:38:40;20.50;99.90
33460;DHT22;19795;53.160;6.612;2023-07-20T16:41:08;20.70;1.00
33460;DHT22;19795;53.160;6.612;2023-07-20T16:43:37;20.50;99.90
33460;DHT22;19795;53.160;6.612;2023-07-20T16:46:09;21.10;99.90
33460;DHT22;19795;53.160;6.612;2023-07-20T16:48:36;21.60;99.90
33460;DHT22;19795;53.160;6.612;2023-07-20T16:51:02;21.50;99.90
33460;DHT22;19795;53.160;6.612;2023-07-20T16:53:28;21.70;1.00
33460;DHT22;19795;53.160;6.612;2023-07-20T16:55:54;22.00;1.00
33460;DHT22;19795;53.160;6.612;2023-07-20T16:58:24;21.70;1.00
33460;DHT22;19795;53.160;6.612;2023-07-20T17:00:51;21.40;99.90
33460;DHT22;19795;53.160;6.612;2023-07-20T17:03:17;21.30;1.00
33460;DHT22;19795;53.160;6.612;2023-07-20T17:05:44;20.90;99.90
33460;DHT22;19795;53.160;6.612;2023-07-20T17:08:10;20.70;99.90
33460;DHT22;19795;53.160;6.612;2023-07-20T17:10:36;20.40;45.90
33460;DHT22;19795;53.160;6.612;2023-07-20T17:13:03;20.20;99.90
33460;DHT22;19795;53.160;6.612;2023-07-20T17:15:31;20.10;99.90
33460;DHT22;19795;53.160;6.612;2023-07-20T17:17:56;20.10;25.70
33460;DHT22;19795;53.160;6.612;2023-07-20T17:20:22;20.00;1.00
33460;DHT22;19795;53.160;6.612;2023-07-20T17:22:48;19.90;99.90
33460;DHT22;19795;53.160;6.612;2023-07-20T17:25:14;20.00;99.90
33460;DHT22;19795;53.160;6.612;2023-07-20T17:27:40;19.90;99.90
33460;DHT22;19795;53.160;6.612;2023-07-20T17:30:06;19.80;99.90
33460;DHT22;19795;53.160;6.612;2023-07-20T17:32:32;19.90;1.00
33460;DHT22;19795;53.160;6.612;2023-07-20T17:34:58;20.00;1.00
33460;DHT22;19795;53.160;6.612;2023-07-20T17:37:27;20.10;1.00
33460;DHT22;19795;53.160;6.612;2023-07-20T17:39:52;20.50;1.00
33460;DHT22;19795;53.160;6.612;2023-07-20T17:42:19;20.90;99.90
33460;DHT22;19795;53.160;6.612;2023-07-20T17:44:45;20.80;93.60
33460;DHT22;19795;53.160;6.612;2023-07-20T17:47:11;21.60;64.70
33460;DHT22;19795;53.160;6.612;2023-07-20T17:49:37;22.90;99.90
33460;DHT22;19795;53.160;6.612;2023-07-20T17:52:03;23.00;99.90
33460;DHT22;19795;53.160;6.612;2023-07-20T17:54:28;21.90;99.90
33460;DHT22;19795;53.160;6.612;2023-07-20T17:56:54;21.00;1.00
33460;DHT22;19795;53.160;6.612;2023-07-20T17:59:20;20.80;1.00
33460;DHT22;19795;53.160;6.612;2023-07-20T18:01:46;20.50;99.90
33460;DHT22;19795;53.160;6.612;2023-07-20T18:04:12;20.20;20.60
33460;DHT22;19795;53.160;6.612;2023-07-20T18:06:38;20.90;2.20
33460;DHT22;19795;53.160;6.612;2023-07-20T18:09:04;21.80;99.90
33460;DHT22;19795;53.160;6.612;2023-07-20T18:11:32;22.50;99.90
33460;DHT22;19795;53.160;6.612;2023-07-20T18:13:58;23.00;97.80
33460;DHT22;19795;53.160;6.612;2023-07-20T18:16:25;23.20;99.90
33460;DHT22;19795;53.160;6.612;2023-07-20T18:18:51;24.00;1.00
33460;DHT22;19795;53.160;6.612;2023-07-20T18:21:16;23.20;37.50
33460;DHT22;19795;53.160;6.612;2023-07-20T18:23:42;21.90;41.00
33460;DHT22;19795;53.160;6.612;2023-07-20T18:26:08;21.80;99.90
33460;DHT22;19795;53.160;6.612;2023-07-20T18:28:33;22.80;1.00
33460;DHT22;19795;53.160;6.612;2023-07-20T18:31:04;23.60;1.00
33460;DHT22;19795;53.160;6.612;2023-07-20T18:33:30;23.20;99.90
33460;DHT22;19795;53.160;6.612;2023-07-20T18:35:56;22.90;28.40
33460;DHT22;19795;53.160;6.612;2023-07-20T18:38:21;22.60;99.90
33460;DHT22;19795;53.160;6.612;2023-07-20T18:40:47;22.80;99.90
33460;DHT22;19795;53.160;6.612;2023-07-20T18:43:13;22.70;99.90
33460;DHT22;19795;53.160;6.612;2023-07-20T18:45:38;22.70;21.20
33460;DHT22;19795;53.160;6.612;2023-07-20T18:48:06;22.70;1.00
33460;DHT22;19795;53.160;6.612;2023-07-20T18:50:31;21.80;84.90
33460;DHT22;19795;53.160;6.612;2023-07-20T18:53:00;21.70;99.90
33460;DHT22;19795;53.160;6.612;2023-07-20T18:55:26;20.80;99.90
33460;DHT22;19795;53.160;6.612;2023-07-20T18:57:53;19.90;99.90
33460;DHT22;19795;53.160;6.612;2023-07-20T19:00:19;19.10;99.90
33460;DHT22;19795;53.160;6.612;2023-07-20T19:02:44;18.60;1.00
33460;DHT22;19795;53.160;6.612;2023-07-20T19:05:11;18.30;1.00
33460;DHT22;19795;53.160;6.612;2023-07-20T19:07:36;18.10;6.10
33460;DHT22;19795;53.160;6.612;2023-07-20T19:10:03;18.00;10.40
33460;DHT22;19795;53.160;6.612;2023-07-20T19:12:29;17.80;15.90
33460;DHT22;19795;53.160;6.612;2023-07-20T19:14:55;17.70;38.20
33460;DHT22;19795;53.160;6.612;2023-07-20T19:17:21;17.60;38.90
33460;DHT22;19795;53.160;6.612;2023-07-20T19:19:50;17.50;52.80